sensor_id;sensor_type;location;lat;lon;timestamp;P1;durP1;ratioP1;P2;durP2;ratioP2
17345;SDS011;8790;53.590;10.002;2023-05-02T00:00:24;20.87;;;16.00;;
17345;SDS011;8790;53.590;10.002;2023-05-02T00:02:56;20.73;;;16.07;;
17345;SDS011;8790;53.590;10.002;2023-05-02T00:05:29;20.50;;;15.70;;
17345;SDS011;8790;53.590;10.002;2023-05-02T00:08:01;22.83;;;15.37;;
17345;SDS011;8790;53.590;10.002;2023-05-02T00:10:33;21.17;;;15.60;;
17345;SDS011;8790;53.590;10.002;2023-05-02T00:13:05;21.53;;;16.10;;
17345;SDS011;8790;53.590;10.002;2023-05-02T00:15:36;21.33;;;16.90;;
17345;SDS011;8790;53.590;10.002;2023-05-02T00:18:08;22.53;;;17.50;;
17345;SDS011;8790;53.590;10.002;2023-05-02T00:20:42;23.07;;;17.40;;
17345;SDS011;8790;53.590;10.002;2023-05-02T00:23:14;25.40;;;17.87;;
17345;SDS011;8790;53.590;10.002;2023-05-02T00:25:45;24.50;;;18.23;;
17345;SDS011;8790;53.590;10.002;2023-05-02T00:28:17;25.70;;;16.93;;
17345;SDS011;8790;53.590;10.002;2023-05-02T00:30:49;23.93;;;18.17;;
17345;SDS011;8790;53.590;10.002;2023-05-02T00:33:20;23.97;;;18.60;;
17345;SDS011;8790;53.590;10.002;2023-05-02T00:35:53;24.20;;;17.97;;
17345;SDS011;8790;53.590;10.002;2023-05-02T00:38:25;26.43;;;19.33;;
17345;SDS011;8790;53.590;10.002;2023-05-02T00:40:57;25.93;;;18.37;;
17345;SDS011;8790;53.590;10.002;2023-05-02T00:43:29;25.73;;;19.47;;
17345;SDS011;8790;53.590;10.002;2023-05-02T00:46:01;27.80;;;20.60;;
17345;SDS011;8790;53.590;10.002;2023-05-02T00:48:33;28.03;;;20.17;;
17345;SDS011;8790;53.590;10.002;2023-05-02T00:51:06;29.23;;;19.57;;
17345;SDS011;8790;53.590;10.002;2023-05-02T00:53:41;27.63;;;19.90;;
17345;SDS011;8790;53.590;10.002;2023-05-02T00:56:12;27.43;;;19.77;;
17345;SDS011;8790;53.590;10.002;2023-05-02T00:58:44;26.10;;;19.13;;
17345;SDS011;8790;53.590;10.002;2023-05-02T01:01:22;27.37;;;19.57;;
17345;SDS011;8790;53.590;10.002;2023-05-02T01:04:03;24.93;;;18.40;;
17345;SDS011;8790;53.590;10.002;2023-05-02T01:06:49;27.90;;;18.93;;
17345;SDS011;8790;53.590;10.002;2023-05-02T01:09:33;29.30;;;19.47;;
17345;SDS011;8790;53.590;10.002;2023-05-02T01:12:14;26.67;;;18.10;;
17345;SDS011;8790;53.590;10.002;2023-05-02T01:14:57;23.53;;;17.17;;
17345;SDS011;8790;53.590;10.002;2023-05-02T01:17:33;24.57;;;18.00;;
17345;SDS011;8790;53.590;10.002;2023-05-02T01:20:08;25.13;;;18.33;;
17345;SDS011;8790;53.590;10.002;2023-05-02T01:22:46;25.00;;;17.80;;
17345;SDS011;8790;53.590;10.002;2023-05-02T01:25:21;30.73;;;20.40;;
17345;SDS011;8790;53.590;10.002;2023-05-02T01:28:00;24.57;;;18.47;;
17345;SDS011;8790;53.590;10.002;2023-05-02T01:30:40;27.37;;;18.47;;
17345;SDS011;8790;53.590;10.002;2023-05-02T01:33:14;25.10;;;18.57;;
17345;SDS011;8790;53.590;10.002;2023-05-02T01:35:48;19.93;;;14.90;;
17345;SDS011;8790;53.590;10.002;2023-05-02T01:38:22;19.53;;;13.70;;
17345;SDS011;8790;53.590;10.002;2023-05-02T01:40:56;18.83;;;12.70;;
17345;SDS011;8790;53.590;10.002;2023-05-02T01:43:32;17.70;;;12.33;;
17345;SDS011;8790;53.590;10.002;2023-05-02T01:46:07;17.10;;;12.60;;
17345;SDS011;8790;53.590;10.002;2023-05-02T01:48:41;16.07;;;11.73;;
17345;SDS011;8790;53.590;10.002;2023-05-02T01:51:16;17.90;;;11.97;;
17345;SDS011;8790;53.590;10.002;2023-05-02T01:53:50;17.27;;;11.73;;
17345;SDS011;8790;53.590;10.002;2023-05-02T01:56:23;19.63;;;11.87;;
17345;SDS011;8790;53.590;10.002;2023-05-02T01:58:55;17.10;;;11.37;;
17345;SDS011;8790;53.590;10.002;2023-05-02T02:01:29;15.57;;;10.30;;
17345;SDS011;8790;53.590;10.002;2023-05-02T02:04:01;13.77;;;9.17;;
17345;SDS011;8790;53.590;10.002;2023-05-02T02:06:35;13.73;;;9.40;;
17345;SDS011;8790;53.590;10.002;2023-05-02T02:09:08;13.23;;;8.77;;
17345;SDS011;8790;53.590;10.002;2023-05-02T02:11:42;12.00;;;8.60;;
17345;SDS011;8790;53.590;10.002;2023-05-02T02:14:17;10.97;;;8.23;;
17345;SDS011;8790;53.590;10.002;2023-05-02T02:16:54;11.20;;;7.70;;
17345;SDS011;8790;53.590;10.002;2023-05-02T02:19:30;12.63;;;8.90;;
17345;SDS011;8790;53.590;10.002;2023-05-02T02:22:03;11.43;;;8.23;;
17345;SDS011;8790;53.590;10.002;2023-05-02T02:24:37;9.83;;;7.47;;
17345;SDS011;8790;53.590;10.002;2023-05-02T02:27:10;10.53;;;7.10;;
17345;SDS011;8790;53.590;10.002;2023-05-02T02:29:42;8.80;;;6.77;;
17345;SDS011;8790;53.590;10.002;2023-05-02T02:32:17;10.40;;;6.37;;
17345;SDS011;8790;53.590;10.002;2023-05-02T02:34:49;7.20;;;6.13;;
17345;SDS011;8790;53.590;10.002;2023-05-02T02:37:22;6.90;;;6.03;;
17345;SDS011;8790;53.590;10.002;2023-05-02T02:40:02;7.20;;;5.63;;
17345;SDS011;8790;53.590;10.002;2023-05-02T02:42:38;5.93;;;4.40;;
17345;SDS011;8790;53.590;10.002;2023-05-02T02:45:17;6.03;;;4.23;;
17345;SDS011;8790;53.590;10.002;2023-05-02T02:48:01;5.30;;;3.83;;
17345;SDS011;8790;53.590;10.002;2023-05-02T02:50:41;8.63;;;5.80;;
17345;SDS011;8790;53.590;10.002;2023-05-02T02:53:25;9.60;;;6.10;;
17345;SDS011;8790;53.590;10.002;2023-05-02T02:56:05;8.73;;;5.67;;
17345;SDS011;8790;53.590;10.002;2023-05-02T02:58:44;10.13;;;5.10;;
17345;SDS011;8790;53.590;10.002;2023-05-02T03:01:20;7.03;;;3.87;;
17345;SDS011;8790;53.590;10.002;2023-05-02T03:03:55;12.87;;;4.13;;
17345;SDS011;8790;53.590;10.002;2023-05-02T03:06:28;8.57;;;3.80;;
17345;SDS011;8790;53.590;10.002;2023-05-02T03:09:00;8.27;;;3.20;;
17345;SDS011;8790;53.590;10.002;2023-05-02T03:11:34;13.13;;;4.23;;
17345;SDS011;8790;53.590;10.002;2023-05-02T03:14:05;8.07;;;3.30;;
17345;SDS011;8790;53.590;10.002;2023-05-02T03:16:37;9.97;;;3.10;;
17345;SDS011;8790;53.590;10.002;2023-05-02T03:19:15;13.13;;;3.30;;
17345;SDS011;8790;53.590;10.002;2023-05-02T03:21:47;13.37;;;3.40;;
17345;SDS011;8790;53.590;10.002;2023-05-02T03:24:23;9.90;;;3.50;;
17345;SDS011;8790;53.590;10.002;2023-05-02T03:26:57;14.73;;;4.17;;
17345;SDS011;8790;53.590;10.002;2023-05-02T03:29:35;12.23;;;3.90;;
17345;SDS011;8790;53.590;10.002;2023-05-02T03:32:07;13.20;;;4.00;;
17345;SDS011;8790;53.590;10.002;2023-05-02T03:34:42;13.83;;;3.87;;
17345;SDS011;8790;53.590;10.002;2023-05-02T03:37:14;12.87;;;4.10;;
17345;SDS011;8790;53.590;10.002;2023-05-02T03:39:46;13.90;;;4.00;;
17345;SDS011;8790;53.590;10.002;2023-05-02T03:42:17;12.27;;;4.13;;
17345;SDS011;8790;53.590;10.002;2023-05-02T03:44:51;11.07;;;4.07;;
17345;SDS011;8790;53.590;10.002;2023-05-02T03:47:23;14.20;;;4.43;;
17345;SDS011;8790;53.590;10.002;2023-05-02T03:49:56;16.60;;;4.20;;
17345;SDS011;8790;53.590;10.002;2023-05-02T03:52:29;14.03;;;4.00;;
17345;SDS011;8790;53.590;10.002;2023-05-02T03:55:01;12.23;;;4.20;;
17345;SDS011;8790;53.590;10.002;2023-05-02T03:57:34;14.80;;;3.80;;
17345;SDS011;8790;53.590;10.002;2023-05-02T04:00:07;16.13;;;4.20;;
17345;SDS011;8790;53.590;10.002;2023-05-02T04:02:42;17.27;;;4.33;;
17345;SDS011;8790;53.590;10.002;2023-05-02T04:05:19;14.20;;;4.10;;
17345;SDS011;8790;53.590;10.002;2023-05-02T04:07:53;13.70;;;4.03;;
17345;SDS011;8790;53.590;10.002;2023-05-02T04:10:25;14.30;;;4.37;;
17345;SDS011;8790;53.590;10.002;2023-05-02T04:13:01;14.70;;;4.00;;
17345;SDS011;8790;53.590;10.002;2023-05-02T04:15:34;13.97;;;4.07;;
17345;SDS011;8790;53.590;10.002;2023-05-02T04:18:06;13.30;;;3.87;;
17345;SDS011;8790;53.590;10.002;2023-05-02T04:20:42;14.20;;;4.17;;
17345;SDS011;8790;53.590;10.002;2023-05-02T04:23:16;11.70;;;3.33;;
17345;SDS011;8790;53.590;10.002;2023-05-02T04:25:51;11.80;;;3.40;;
17345;SDS011;8790;53.590;10.002;2023-05-02T04:28:25;9.20;;;3.43;;
17345;SDS011;8790;53.590;10.002;2023-05-02T04:30:57;10.70;;;4.00;;
17345;SDS011;8790;53.590;10.002;2023-05-02T04:33:30;14.23;;;3.77;;
17345;SDS011;8790;53.590;10.002;2023-05-02T04:36:04;13.53;;;4.30;;
17345;SDS011;8790;53.590;10.002;2023-05-02T04:38:38;14.10;;;4.03;;
17345;SDS011;8790;53.590;10.002;2023-05-02T04:41:10;12.70;;;3.63;;
17345;SDS011;8790;53.590;10.002;2023-05-02T04:43:48;9.53;;;3.33;;
17345;SDS011;8790;53.590;10.002;2023-05-02T04:46:19;13.37;;;3.67;;
17345;SDS011;8790;53.590;10.002;2023-05-02T04:48:51;12.73;;;4.13;;
17345;SDS011;8790;53.590;10.002;2023-05-02T04:51:25;14.10;;;3.73;;
17345;SDS011;8790;53.590;10.002;2023-05-02T04:53:57;11.67;;;3.67;;
17345;SDS011;8790;53.590;10.002;2023-05-02T04:56:29;13.60;;;4.10;;
17345;SDS011;8790;53.590;10.002;2023-05-02T04:59:01;14.00;;;4.73;;
17345;SDS011;8790;53.590;10.002;2023-05-02T05:01:34;14.73;;;4.23;;
17345;SDS011;8790;53.590;10.002;2023-05-02T05:04:07;10.60;;;4.13;;
17345;SDS011;8790;53.590;10.002;2023-05-02T05:06:39;14.53;;;3.87;;
17345;SDS011;8790;53.590;10.002;2023-05-02T05:09:12;16.20;;;5.13;;
17345;SDS011;8790;53.590;10.002;2023-05-02T05:11:44;8.80;;;3.33;;
17345;SDS011;8790;53.590;10.002;2023-05-02T05:14:17;11.17;;;3.70;;
17345;SDS011;8790;53.590;10.002;2023-05-02T05:16:53;19.47;;;3.83;;
17345;SDS011;8790;53.590;10.002;2023-05-02T05:19:25;11.60;;;3.40;;
17345;SDS011;8790;53.590;10.002;2023-05-02T05:22:00;16.67;;;3.80;;
17345;SDS011;8790;53.590;10.002;2023-05-02T05:24:31;11.50;;;3.63;;
17345;SDS011;8790;53.590;10.002;2023-05-02T05:27:04;9.87;;;3.43;;
17345;SDS011;8790;53.590;10.002;2023-05-02T05:29:35;13.63;;;3.40;;
17345;SDS011;8790;53.590;10.002;2023-05-02T05:32:08;8.77;;;3.13;;
17345;SDS011;8790;53.590;10.002;2023-05-02T05:34:40;12.03;;;3.50;;
17345;SDS011;8790;53.590;10.002;2023-05-02T05:37:14;13.37;;;3.47;;
17345;SDS011;8790;53.590;10.002;2023-05-02T05:39:46;12.30;;;3.60;;
17345;SDS011;8790;53.590;10.002;2023-05-02T05:42:18;10.97;;;3.53;;
17345;SDS011;8790;53.590;10.002;2023-05-02T05:44:53;13.17;;;4.10;;
17345;SDS011;8790;53.590;10.002;2023-05-02T05:47:25;9.33;;;3.40;;
17345;SDS011;8790;53.590;10.002;2023-05-02T05:49:58;11.23;;;3.93;;
17345;SDS011;8790;53.590;10.002;2023-05-02T05:52:34;10.93;;;3.73;;
17345;SDS011;8790;53.590;10.002;2023-05-02T05:55:07;10.73;;;3.33;;
17345;SDS011;8790;53.590;10.002;2023-05-02T05:57:39;9.53;;;2.97;;
17345;SDS011;8790;53.590;10.002;2023-05-02T06:00:13;11.50;;;3.07;;
17345;SDS011;8790;53.590;10.002;2023-05-02T06:02:52;10.03;;;2.83;;
17345;SDS011;8790;53.590;10.002;2023-05-02T06:05:33;9.57;;;3.27;;
17345;SDS011;8790;53.590;10.002;2023-05-02T06:08:06;9.33;;;3.60;;
17345;SDS011;8790;53.590;10.002;2023-05-02T06:10:38;12.47;;;3.70;;
17345;SDS011;8790;53.590;10.002;2023-05-02T06:13:11;9.63;;;4.10;;
17345;SDS011;8790;53.590;10.002;2023-05-02T06:15:45;13.00;;;4.17;;
17345;SDS011;8790;53.590;10.002;2023-05-02T06:18:17;10.07;;;3.90;;
17345;SDS011;8790;53.590;10.002;2023-05-02T06:20:48;10.70;;;3.60;;
17345;SDS011;8790;53.590;10.002;2023-05-02T06:23:22;7.23;;;2.83;;
17345;SDS011;8790;53.590;10.002;2023-05-02T06:25:54;9.77;;;3.20;;
17345;SDS011;8790;53.590;10.002;2023-05-02T06:28:29;6.67;;;3.13;;
17345;SDS011;8790;53.590;10.002;2023-05-02T06:31:02;8.37;;;3.03;;
17345;SDS011;8790;53.590;10.002;2023-05-02T06:33:34;7.90;;;3.27;;
17345;SDS011;8790;53.590;10.002;2023-05-02T06:36:06;10.77;;;3.10;;
17345;SDS011;8790;53.590;10.002;2023-05-02T06:38:40;7.27;;;2.87;;
17345;SDS011;8790;53.590;10.002;2023-05-02T06:41:11;6.37;;;2.90;;
17345;SDS011;8790;53.590;10.002;2023-05-02T06:43:44;6.93;;;3.33;;
17345;SDS011;8790;53.590;10.002;2023-05-02T06:46:16;11.93;;;3.00;;
17345;SDS011;8790;53.590;10.002;2023-05-02T06:48:49;10.77;;;3.50;;
17345;SDS011;8790;53.590;10.002;2023-05-02T06:51:21;7.27;;;3.13;;
17345;SDS011;8790;53.590;10.002;2023-05-02T06:53:55;7.97;;;3.30;;
17345;SDS011;8790;53.590;10.002;2023-05-02T06:56:27;5.87;;;2.80;;
17345;SDS011;8790;53.590;10.002;2023-05-02T06:58:59;7.90;;;3.10;;
17345;SDS011;8790;53.590;10.002;2023-05-02T07:01:31;9.17;;;3.40;;
17345;SDS011;8790;53.590;10.002;2023-05-02T07:04:02;6.43;;;3.33;;
17345;SDS011;8790;53.590;10.002;2023-05-02T07:06:35;6.97;;;3.20;;
17345;SDS011;8790;53.590;10.002;2023-05-02T07:09:08;6.23;;;3.27;;
17345;SDS011;8790;53.590;10.002;2023-05-02T07:11:39;5.60;;;2.87;;
17345;SDS011;8790;53.590;10.002;2023-05-02T07:14:11;4.50;;;3.30;;
17345;SDS011;8790;53.590;10.002;2023-05-02T07:16:43;6.33;;;3.60;;
17345;SDS011;8790;53.590;10.002;2023-05-02T07:19:15;10.53;;;4.27;;
17345;SDS011;8790;53.590;10.002;2023-05-02T07:21:46;7.30;;;3.70;;
17345;SDS011;8790;53.590;10.002;2023-05-02T07:24:20;5.23;;;3.13;;
17345;SDS011;8790;53.590;10.002;2023-05-02T07:26:52;4.83;;;2.50;;
17345;SDS011;8790;53.590;10.002;2023-05-02T07:29:23;4.83;;;2.30;;
17345;SDS011;8790;53.590;10.002;2023-05-02T07:31:55;4.63;;;2.23;;
17345;SDS011;8790;53.590;10.002;2023-05-02T07:34:27;4.00;;;2.10;;
17345;SDS011;8790;53.590;10.002;2023-05-02T07:36:59;4.13;;;1.80;;
17345;SDS011;8790;53.590;10.002;2023-05-02T07:39:32;5.77;;;2.00;;
17345;SDS011;8790;53.590;10.002;2023-05-02T07:42:04;5.67;;;2.10;;
17345;SDS011;8790;53.590;10.002;2023-05-02T07:44:35;8.40;;;2.20;;
17345;SDS011;8790;53.590;10.002;2023-05-02T07:47:07;6.23;;;1.93;;
17345;SDS011;8790;53.590;10.002;2023-05-02T07:49:39;3.60;;;1.63;;
17345;SDS011;8790;53.590;10.002;2023-05-02T07:52:11;7.30;;;2.23;;
17345;SDS011;8790;53.590;10.002;2023-05-02T07:54:44;5.03;;;2.17;;
17345;SDS011;8790;53.590;10.002;2023-05-02T07:57:15;8.70;;;2.43;;
17345;SDS011;8790;53.590;10.002;2023-05-02T07:59:47;7.43;;;2.60;;
17345;SDS011;8790;53.590;10.002;2023-05-02T08:02:19;7.20;;;2.50;;
17345;SDS011;8790;53.590;10.002;2023-05-02T08:04:53;5.57;;;2.23;;
17345;SDS011;8790;53.590;10.002;2023-05-02T08:07:24;9.20;;;2.27;;
17345;SDS011;8790;53.590;10.002;2023-05-02T08:09:57;9.10;;;2.10;;
17345;SDS011;8790;53.590;10.002;2023-05-02T08:12:29;4.13;;;1.87;;
17345;SDS011;8790;53.590;10.002;2023-05-02T08:15:03;7.03;;;2.30;;
17345;SDS011;8790;53.590;10.002;2023-05-02T08:17:35;7.47;;;2.30;;
17345;SDS011;8790;53.590;10.002;2023-05-02T08:20:07;6.03;;;2.03;;
17345;SDS011;8790;53.590;10.002;2023-05-02T08:22:39;5.53;;;1.80;;
17345;SDS011;8790;53.590;10.002;2023-05-02T08:25:12;9.73;;;2.27;;
17345;SDS011;8790;53.590;10.002;2023-05-02T08:27:44;5.03;;;1.70;;
17345;SDS011;8790;53.590;10.002;2023-05-02T08:30:15;5.77;;;1.80;;
17345;SDS011;8790;53.590;10.002;2023-05-02T08:32:47;8.30;;;3.90;;
17345;SDS011;8790;53.590;10.002;2023-05-02T08:35:19;5.13;;;2.00;;
17345;SDS011;8790;53.590;10.002;2023-05-02T08:37:50;5.40;;;1.93;;
17345;SDS011;8790;53.590;10.002;2023-05-02T08:40:23;6.33;;;2.10;;
17345;SDS011;8790;53.590;10.002;2023-05-02T08:42:55;8.00;;;2.00;;
17345;SDS011;8790;53.590;10.002;2023-05-02T08:45:27;7.63;;;2.30;;
17345;SDS011;8790;53.590;10.002;2023-05-02T08:48:01;4.97;;;2.17;;
17345;SDS011;8790;53.590;10.002;2023-05-02T08:50:36;4.57;;;2.00;;
17345;SDS011;8790;53.590;10.002;2023-05-02T08:53:08;3.53;;;1.90;;
17345;SDS011;8790;53.590;10.002;2023-05-02T08:55:42;7.53;;;2.40;;
17345;SDS011;8790;53.590;10.002;2023-05-02T08:58:14;5.17;;;2.07;;
17345;SDS011;8790;53.590;10.002;2023-05-02T09:00:45;6.00;;;2.10;;
17345;SDS011;8790;53.590;10.002;2023-05-02T09:03:20;6.70;;;2.53;;
17345;SDS011;8790;53.590;10.002;2023-05-02T09:06:03;5.37;;;2.50;;
17345;SDS011;8790;53.590;10.002;2023-05-02T09:08:36;7.77;;;2.43;;
17345;SDS011;8790;53.590;10.002;2023-05-02T09:11:11;7.80;;;2.40;;
17345;SDS011;8790;53.590;10.002;2023-05-02T09:13:43;4.90;;;2.60;;
17345;SDS011;8790;53.590;10.002;2023-05-02T09:16:16;5.03;;;2.50;;
17345;SDS011;8790;53.590;10.002;2023-05-02T09:18:52;6.27;;;2.50;;
17345;SDS011;8790;53.590;10.002;2023-05-02T09:21:25;5.00;;;2.27;;
17345;SDS011;8790;53.590;10.002;2023-05-02T09:24:15;5.50;;;2.10;;
17345;SDS011;8790;53.590;10.002;2023-05-02T09:26:58;5.03;;;1.90;;
17345;SDS011;8790;53.590;10.002;2023-05-02T09:29:32;6.10;;;2.50;;
17345;SDS011;8790;53.590;10.002;2023-05-02T09:32:06;3.60;;;1.80;;
17345;SDS011;8790;53.590;10.002;2023-05-02T09:34:38;4.90;;;2.03;;
17345;SDS011;8790;53.590;10.002;2023-05-02T09:37:10;6.53;;;1.80;;
17345;SDS011;8790;53.590;10.002;2023-05-02T09:40:06;5.03;;;1.90;;
17345;SDS011;8790;53.590;10.002;2023-05-02T09:42:39;3.73;;;1.37;;
17345;SDS011;8790;53.590;10.002;2023-05-02T09:45:21;2.97;;;1.50;;
17345;SDS011;8790;53.590;10.002;2023-05-02T09:47:54;2.87;;;1.50;;
17345;SDS011;8790;53.590;10.002;2023-05-02T09:50:33;3.10;;;1.50;;
17345;SDS011;8790;53.590;10.002;2023-05-02T09:53:06;2.47;;;1.23;;
17345;SDS011;8790;53.590;10.002;2023-05-02T09:55:40;4.10;;;1.50;;
17345;SDS011;8790;53.590;10.002;2023-05-02T09:58:22;3.23;;;1.40;;
17345;SDS011;8790;53.590;10.002;2023-05-02T10:00:54;4.23;;;1.70;;
17345;SDS011;8790;53.590;10.002;2023-05-02T10:03:27;4.47;;;1.70;;
17345;SDS011;8790;53.590;10.002;2023-05-02T10:06:01;4.73;;;1.77;;
17345;SDS011;8790;53.590;10.002;2023-05-02T10:08:34;5.77;;;1.57;;
17345;SDS011;8790;53.590;10.002;2023-05-02T10:11:07;3.97;;;1.73;;
17345;SDS011;8790;53.590;10.002;2023-05-02T10:13:40;6.60;;;2.47;;
17345;SDS011;8790;53.590;10.002;2023-05-02T10:16:14;4.33;;;1.70;;
17345;SDS011;8790;53.590;10.002;2023-05-02T10:18:57;4.07;;;1.67;;
17345;SDS011;8790;53.590;10.002;2023-05-02T10:21:33;4.40;;;2.03;;
17345;SDS011;8790;53.590;10.002;2023-05-02T10:24:06;6.63;;;2.60;;
17345;SDS011;8790;53.590;10.002;2023-05-02T10:26:38;6.00;;;3.73;;
17345;SDS011;8790;53.590;10.002;2023-05-02T10:29:12;6.33;;;2.70;;
17345;SDS011;8790;53.590;10.002;2023-05-02T10:31:43;5.00;;;2.80;;
17345;SDS011;8790;53.590;10.002;2023-05-02T10:34:16;5.17;;;3.77;;
17345;SDS011;8790;53.590;10.002;2023-05-02T10:36:49;5.83;;;3.37;;
17345;SDS011;8790;53.590;10.002;2023-05-02T10:39:20;7.67;;;2.90;;
17345;SDS011;8790;53.590;10.002;2023-05-02T10:41:54;7.03;;;2.70;;
17345;SDS011;8790;53.590;10.002;2023-05-02T10:44:32;4.27;;;2.47;;
17345;SDS011;8790;53.590;10.002;2023-05-02T10:47:17;2.43;;;2.03;;
17345;SDS011;8790;53.590;10.002;2023-05-02T10:49:50;4.90;;;1.83;;
17345;SDS011;8790;53.590;10.002;2023-05-02T10:52:27;5.03;;;1.90;;
17345;SDS011;8790;53.590;10.002;2023-05-02T10:55:13;3.83;;;1.40;;
17345;SDS011;8790;53.590;10.002;2023-05-02T11:00:58;3.80;;;1.57;;
17345;SDS011;8790;53.590;10.002;2023-05-02T11:04:10;3.70;;;1.50;;
17345;SDS011;8790;53.590;10.002;2023-05-02T11:09:48;6.33;;;2.10;;
17345;SDS011;8790;53.590;10.002;2023-05-02T11:15:40;5.00;;;2.00;;
17345;SDS011;8790;53.590;10.002;2023-05-02T11:18:25;3.30;;;1.93;;
17345;SDS011;8790;53.590;10.002;2023-05-02T11:30:08;3.23;;;1.70;;
17345;SDS011;8790;53.590;10.002;2023-05-02T11:35:46;4.93;;;1.70;;
17345;SDS011;8790;53.590;10.002;2023-05-02T11:38:19;4.30;;;1.60;;
17345;SDS011;8790;53.590;10.002;2023-05-02T11:40:52;4.03;;;1.37;;
17345;SDS011;8790;53.590;10.002;2023-05-02T11:43:26;1.90;;;1.33;;
17345;SDS011;8790;53.590;10.002;2023-05-02T11:45:58;4.30;;;1.60;;
17345;SDS011;8790;53.590;10.002;2023-05-02T11:48:31;2.60;;;1.20;;
17345;SDS011;8790;53.590;10.002;2023-05-02T11:51:04;3.13;;;1.30;;
17345;SDS011;8790;53.590;10.002;2023-05-02T11:53:38;3.97;;;1.37;;
17345;SDS011;8790;53.590;10.002;2023-05-02T11:56:11;3.07;;;1.60;;
17345;SDS011;8790;53.590;10.002;2023-05-02T11:58:43;4.33;;;1.30;;
17345;SDS011;8790;53.590;10.002;2023-05-02T12:01:16;3.43;;;1.60;;
17345;SDS011;8790;53.590;10.002;2023-05-02T12:03:47;2.33;;;1.20;;
17345;SDS011;8790;53.590;10.002;2023-05-02T12:06:22;3.13;;;1.20;;
17345;SDS011;8790;53.590;10.002;2023-05-02T12:09:04;5.03;;;1.40;;
17345;SDS011;8790;53.590;10.002;2023-05-02T12:11:37;3.60;;;1.40;;
17345;SDS011;8790;53.590;10.002;2023-05-02T12:14:08;4.57;;;1.80;;
17345;SDS011;8790;53.590;10.002;2023-05-02T12:16:41;4.33;;;1.60;;
17345;SDS011;8790;53.590;10.002;2023-05-02T12:19:12;3.20;;;1.63;;
17345;SDS011;8790;53.590;10.002;2023-05-02T12:21:46;8.17;;;1.50;;
17345;SDS011;8790;53.590;10.002;2023-05-02T12:24:18;7.00;;;2.60;;
17345;SDS011;8790;53.590;10.002;2023-05-02T12:29:44;5.83;;;1.70;;
17345;SDS011;8790;53.590;10.002;2023-05-02T12:32:26;4.43;;;1.60;;
17345;SDS011;8790;53.590;10.002;2023-05-02T12:34:59;5.63;;;1.57;;
17345;SDS011;8790;53.590;10.002;2023-05-02T12:37:33;4.27;;;1.60;;
17345;SDS011;8790;53.590;10.002;2023-05-02T12:40:13;4.60;;;1.50;;
17345;SDS011;8790;53.590;10.002;2023-05-02T12:42:56;4.77;;;1.63;;
17345;SDS011;8790;53.590;10.002;2023-05-02T12:45:30;5.13;;;1.73;;
17345;SDS011;8790;53.590;10.002;2023-05-02T12:48:16;4.53;;;1.80;;
17345;SDS011;8790;53.590;10.002;2023-05-02T12:50:49;2.87;;;1.83;;
17345;SDS011;8790;53.590;10.002;2023-05-02T12:53:39;6.10;;;1.60;;
17345;SDS011;8790;53.590;10.002;2023-05-02T12:56:12;5.40;;;1.70;;
17345;SDS011;8790;53.590;10.002;2023-05-02T12:58:45;4.43;;;1.70;;
17345;SDS011;8790;53.590;10.002;2023-05-02T13:01:18;4.40;;;1.70;;
17345;SDS011;8790;53.590;10.002;2023-05-02T13:03:50;3.83;;;1.63;;
17345;SDS011;8790;53.590;10.002;2023-05-02T13:06:22;5.93;;;1.90;;
17345;SDS011;8790;53.590;10.002;2023-05-02T13:08:56;3.93;;;1.70;;
17345;SDS011;8790;53.590;10.002;2023-05-02T13:11:28;6.67;;;2.00;;
17345;SDS011;8790;53.590;10.002;2023-05-02T13:13:59;6.80;;;1.90;;
17345;SDS011;8790;53.590;10.002;2023-05-02T13:16:37;5.90;;;1.73;;
17345;SDS011;8790;53.590;10.002;2023-05-02T13:19:09;5.80;;;1.70;;
17345;SDS011;8790;53.590;10.002;2023-05-02T13:21:40;4.50;;;1.83;;
17345;SDS011;8790;53.590;10.002;2023-05-02T13:24:14;7.47;;;2.07;;
17345;SDS011;8790;53.590;10.002;2023-05-02T13:26:46;3.77;;;1.70;;
17345;SDS011;8790;53.590;10.002;2023-05-02T13:29:18;4.13;;;1.60;;
17345;SDS011;8790;53.590;10.002;2023-05-02T13:31:49;3.43;;;1.63;;
17345;SDS011;8790;53.590;10.002;2023-05-02T13:34:21;3.67;;;1.70;;
17345;SDS011;8790;53.590;10.002;2023-05-02T13:36:53;6.00;;;2.00;;
17345;SDS011;8790;53.590;10.002;2023-05-02T13:39:26;5.23;;;1.73;;
17345;SDS011;8790;53.590;10.002;2023-05-02T13:41:58;2.40;;;1.70;;
17345;SDS011;8790;53.590;10.002;2023-05-02T13:44:31;4.93;;;1.57;;
17345;SDS011;8790;53.590;10.002;2023-05-02T13:47:03;2.80;;;1.57;;
17345;SDS011;8790;53.590;10.002;2023-05-02T13:49:34;2.77;;;1.70;;
17345;SDS011;8790;53.590;10.002;2023-05-02T13:52:06;3.03;;;2.00;;
17345;SDS011;8790;53.590;10.002;2023-05-02T13:54:39;3.77;;;2.00;;
17345;SDS011;8790;53.590;10.002;2023-05-02T13:57:11;5.03;;;1.80;;
17345;SDS011;8790;53.590;10.002;2023-05-02T13:59:43;12.20;;;6.17;;
17345;SDS011;8790;53.590;10.002;2023-05-02T14:02:15;5.27;;;2.03;;
17345;SDS011;8790;53.590;10.002;2023-05-02T14:04:48;4.80;;;2.00;;
17345;SDS011;8790;53.590;10.002;2023-05-02T14:07:20;5.50;;;1.70;;
17345;SDS011;8790;53.590;10.002;2023-05-02T14:09:53;5.40;;;1.90;;
17345;SDS011;8790;53.590;10.002;2023-05-02T14:12:25;2.60;;;1.63;;
17345;SDS011;8790;53.590;10.002;2023-05-02T14:14:57;3.57;;;1.53;;
17345;SDS011;8790;53.590;10.002;2023-05-02T14:17:29;3.57;;;1.40;;
17345;SDS011;8790;53.590;10.002;2023-05-02T14:20:01;4.70;;;1.87;;
17345;SDS011;8790;53.590;10.002;2023-05-02T14:22:33;4.83;;;1.60;;
17345;SDS011;8790;53.590;10.002;2023-05-02T14:25:06;6.60;;;2.07;;
17345;SDS011;8790;53.590;10.002;2023-05-02T14:27:38;4.63;;;1.80;;
17345;SDS011;8790;53.590;10.002;2023-05-02T14:30:10;4.37;;;1.73;;
17345;SDS011;8790;53.590;10.002;2023-05-02T14:32:43;6.63;;;1.70;;
17345;SDS011;8790;53.590;10.002;2023-05-02T14:35:14;3.23;;;1.37;;
17345;SDS011;8790;53.590;10.002;2023-05-02T14:37:46;5.30;;;1.57;;
17345;SDS011;8790;53.590;10.002;2023-05-02T14:40:19;5.60;;;1.50;;
17345;SDS011;8790;53.590;10.002;2023-05-02T14:42:51;4.27;;;1.40;;
17345;SDS011;8790;53.590;10.002;2023-05-02T14:45:23;4.90;;;1.80;;
17345;SDS011;8790;53.590;10.002;2023-05-02T14:47:54;5.30;;;2.60;;
17345;SDS011;8790;53.590;10.002;2023-05-02T14:50:27;5.63;;;1.80;;
17345;SDS011;8790;53.590;10.002;2023-05-02T14:52:58;3.00;;;1.40;;
17345;SDS011;8790;53.590;10.002;2023-05-02T14:55:35;4.10;;;1.23;;
17345;SDS011;8790;53.590;10.002;2023-05-02T14:58:08;7.07;;;1.30;;
17345;SDS011;8790;53.590;10.002;2023-05-02T15:00:40;4.97;;;1.60;;
17345;SDS011;8790;53.590;10.002;2023-05-02T15:03:12;5.10;;;1.60;;
17345;SDS011;8790;53.590;10.002;2023-05-02T15:05:43;3.13;;;1.63;;
17345;SDS011;8790;53.590;10.002;2023-05-02T15:08:15;4.10;;;1.70;;
17345;SDS011;8790;53.590;10.002;2023-05-02T15:10:48;5.90;;;1.90;;
17345;SDS011;8790;53.590;10.002;2023-05-02T15:13:20;9.07;;;4.37;;
17345;SDS011;8790;53.590;10.002;2023-05-02T15:15:52;10.70;;;5.40;;
17345;SDS011;8790;53.590;10.002;2023-05-02T15:18:24;3.43;;;1.70;;
17345;SDS011;8790;53.590;10.002;2023-05-02T15:20:56;4.23;;;1.73;;
17345;SDS011;8790;53.590;10.002;2023-05-02T15:23:28;5.53;;;1.90;;
17345;SDS011;8790;53.590;10.002;2023-05-02T15:26:01;2.73;;;1.60;;
17345;SDS011;8790;53.590;10.002;2023-05-02T15:28:33;5.90;;;1.97;;
17345;SDS011;8790;53.590;10.002;2023-05-02T15:31:04;4.40;;;1.70;;
17345;SDS011;8790;53.590;10.002;2023-05-02T15:33:36;4.13;;;1.90;;
17345;SDS011;8790;53.590;10.002;2023-05-02T15:36:08;6.00;;;2.00;;
17345;SDS011;8790;53.590;10.002;2023-05-02T15:38:40;3.03;;;1.50;;
17345;SDS011;8790;53.590;10.002;2023-05-02T15:41:13;3.20;;;1.60;;
17345;SDS011;8790;53.590;10.002;2023-05-02T15:43:45;5.93;;;2.20;;